Time;durP1;ratioP1;P1;durP2;ratioP2;P2;SDS_P1;SDS_P2;PMS_P1;PMS_P2;Temp;Humidity;BMP_temperature;BMP_pressure;BME280_temperature;BME280_humidity;BME280_pressure;Samples;Min_cycle;Max_cycle;Signal;HPM_P1;HPM_P2
2022/07/13 00:00:57;;;;;;;;;;;;;;;;;;2140998;27;19923;-46
2022/07/13 00:01:58;;;;;;;;;;;;;;;;;;2141193;27;19950;-47
2022/07/13 00:02:59;;;;;;;;;;;;;;;;;;2141116;27;19929;-46
2022/07/13 00:04:00;;;;;;;;;;;;;;;;;;2141077;27;20379;-47
2022/07/13 00:05:01;;;;;;;;;;;;;;;;;;2140927;27;19923;-47
2022/07/13 00:06:02;;;;;;;;;;;;;;;;;;2141172;27;20010;-47
2022/07/13 00:07:03;;;;;;;;;;;;;;;;;;2141018;27;19969;-47
2022/07/13 00:08:04;;;;;;;;;;;;;;;;;;2141170;27;20382;-46
2022/07/13 00:09:05;;;;;;;;;;;;;;;;;;2141080;27;19931;-46
2022/07/13 00:10:06;;;;;;;;;;;;;;;;;;2140942;27;20401;-47
2022/07/13 00:11:07;;;;;;;;;;;;;;;;;;2139145;27;19937;-46
2022/07/13 00:12:08;;;;;;;;;;;;;;;;;;2132385;27;19923;-46
2022/07/13 00:13:09;;;;;;;;;;;;;;;;;;2132460;27;19924;-47
2022/07/13 00:14:09;;;;;;;;;;;;;;;;;;2132302;27;19963;-46
2022/07/13 00:15:10;;;;;;;;;;;;;;;;;;2132520;27;19937;-46
2022/07/13 00:16:11;;;;;;;;;;;;;;;;;;2132375;27;20006;-46
2022/07/13 00:17:12;;;;;;;;;;;;;;;;;;2132544;27;20017;-46
2022/07/13 00:18:14;;;;;;;;;;;;;;;;;;2132398;27;20578;-47
2022/07/13 00:19:15;;;;;;;;;;;;;;;;;;2132383;27;19930;-47
2022/07/13 00:20:16;;;;;;;;;;;;;;;;;;2132643;27;19930;-44
2022/07/13 00:21:17;;;;;;;;;;;;;;;;;;2132421;27;20010;-44
2022/07/13 00:22:18;;;;;;;;;;;;;;;;;;2132434;27;19929;-44
2022/07/13 00:23:19;;;;;;;;;;;;;;;;;;2132317;27;19923;-44
2022/07/13 00:24:20;;;;;;;;;;;;;;;;;;2132347;27;20006;-44
2022/07/13 00:25:21;;;;;;;;;;;;;;;;;;2132499;27;20384;-44
2022/07/13 00:26:22;;;;;;;;;;;;;;;;;;2132179;27;19994;-43
2022/07/13 00:27:23;;;;;;;;;;;;;;;;;;2132364;27;20375;-44
2022/07/13 00:28:23;;;;;;;;;;;;;;;;;;2132424;27;20048;-44
2022/07/13 00:29:24;;;;;;;;;;;;;;;;;;2132221;27;20011;-43
2022/07/13 00:30:25;;;;;;;;;;;;;;;;;;2132394;27;19927;-44
2022/07/13 00:31:26;;;;;;;;;;;;;;;;;;2132440;27;19923;-43
2022/07/13 00:32:27;;;;;;;;;;;;;;;;;;2131707;27;19923;-44
2022/07/13 00:33:28;;;;;;;;;;;;;;;;;;2132009;27;20261;-44
2022/07/13 00:34:30;;;;;;;;;;;;;;;;;;2132229;27;19923;-43
2022/07/13 00:35:31;;;;;;;;;;;;;;;;;;2132352;27;20009;-44
2022/07/13 00:36:32;;;;;;;;;;;;;;;;;;2132162;27;20379;-44
2022/07/13 00:37:33;;;;;;;;;;;;;;;;;;2132223;27;19927;-44
2022/07/13 00:38:34;;;;;;;;;;;;;;;;;;2132199;27;20013;-44
2022/07/13 00:39:35;;;;;;;;;;;;;;;;;;2132216;27;19945;-45
2022/07/13 00:40:36;;;;;;;;;;;;;;;;;;2132176;27;19923;-44
2022/07/13 00:41:37;;;;;;;;;;;;;;;;;;2132999;27;20308;-44
2022/07/13 00:42:37;;;;;;;;;;;;;;;;;;2141071;27;19923;-46
2022/07/13 00:43:38;;;;;;;;;;;;;;;;;;2140897;27;19929;-48
2022/07/13 00:44:39;;;;;;;;;;;;;;;;;;2140933;27;19923;-47
2022/07/13 00:45:40;;;;;;;;;;;;;;;;;;2140940;27;19930;-46
2022/07/13 00:46:41;;;;;;;;;;;;;;;;;;2140729;27;19923;-46
2022/07/13 00:47:42;;;;;;;;;;;;;;;;;;2140782;27;20010;-46
2022/07/13 00:48:43;;;;;;;;;;;;;;;;;;2140998;27;20005;-46
2022/07/13 00:49:44;;;;;;;;;;;;;;;;;;2140804;27;19923;-47
2022/07/13 00:50:45;;;;;;;;;;;;;;;;;;2140837;27;19923;-47
2022/07/13 00:51:46;;;;;;;;;;;;;;;;;;2140688;27;20367;-47
2022/07/13 00:52:47;;;;;;;;;;;;;;;;;;2141067;27;19961;-44
2022/07/13 00:53:48;;;;;;;;;;;;;;;;;;2140871;27;19973;-45
2022/07/13 00:54:49;;;;;;;;;;;;;;;;;;2140751;27;19970;-44
2022/07/13 00:55:50;;;;;;;;;;;;;;;;;;2140803;27;20021;-44
2022/07/13 00:56:50;;;;;;;;;;;;;;;;;;2140687;27;19929;-44
2022/07/13 00:57:52;;;;;;;;;;;;;;;;;;2140875;27;19965;-44
2022/07/13 00:58:52;;;;;;;;;;;;;;;;;;2140761;27;19923;-44
2022/07/13 00:59:53;;;;;;;;;;;;;;;;;;2140670;27;20395;-44
2022/07/13 01:00:55;;;;;;;;;;;;;;;;;;2140858;27;19971;-43
2022/07/13 01:01:56;;;;;;;;;;;;;;;;;;2140778;27;19929;-44
2022/07/13 01:02:57;;;;;;;;;;;;;;;;;;2140723;27;19999;-44
2022/07/13 01:03:58;;;;;;;;;;;;;;;;;;2140718;27;20408;-43
2022/07/13 01:04:59;;;;;;;;;;;;;;;;;;2140482;27;19923;-44
2022/07/13 01:06:00;;;;;;;;;;;;;;;;;;2140574;27;19962;-44
2022/07/13 01:07:01;;;;;;;;;;;;;;;;;;2140840;27;20071;-44
2022/07/13 01:08:01;;;;;;;;;;;;;;;;;;2140603;27;20013;-44
2022/07/13 01:09:02;;;;;;;;;;;;;;;;;;2141029;27;19922;-44
2022/07/13 01:10:05;;;;;;;;;;;;;;;;;;2140656;27;19954;-44
2022/07/13 01:11:06;;;;;;;;;;;;;;;;;;2138629;27;19933;-45
2022/07/13 01:12:07;;;;;;;;;;;;;;;;;;2132112;27;20018;-44
2022/07/13 01:13:08;;;;;;;;;;;;;;;;;;2132140;27;19963;-45
2022/07/13 01:14:09;;;;;;;;;;;;;;;;;;2131943;27;20009;-44
2022/07/13 01:15:10;;;;;;;;;;;;;;;;;;2132114;27;20329;-44
2022/07/13 01:16:11;;;;;;;;;;;;;;;;;;2132228;27;19923;-44
2022/07/13 01:17:12;;;;;;;;;;;;;;;;;;2132102;27;19923;-46
2022/07/13 01:18:13;;;;;;;;;;;;;;;;;;2132075;27;19966;-46
2022/07/13 01:19:14;;;;;;;;;;;;;;;;;;2132030;27;19927;-46
2022/07/13 01:20:15;;;;;;;;;;;;;;;;;;2132032;27;20018;-47
2022/07/13 01:21:16;;;;;;;;;;;;;;;;;;2131912;27;19951;-47
2022/07/13 01:22:17;;;;;;;;;;;;;;;;;;2132042;27;19929;-46
2022/07/13 01:23:18;;;;;;;;;;;;;;;;;;2131964;27;19949;-46
2022/07/13 01:24:18;;;;;;;;;;;;;;;;;;2132025;27;19927;-47
2022/07/13 01:25:19;;;;;;;;;;;;;;;;;;2132240;27;19923;-47
2022/07/13 01:26:20;;;;;;;;;;;;;;;;;;2131958;27;20018;-47
2022/07/13 01:27:21;;;;;;;;;;;;;;;;;;2131908;27;20006;-47
2022/07/13 01:28:22;;;;;;;;;;;;;;;;;;2131765;27;19923;-46
2022/07/13 01:29:23;;;;;;;;;;;;;;;;;;2131838;27;19927;-47
2022/07/13 01:30:24;;;;;;;;;;;;;;;;;;2131965;27;20400;-44
2022/07/13 01:31:24;;;;;;;;;;;;;;;;;;2131836;27;19923;-44
2022/07/13 01:32:26;;;;;;;;;;;;;;;;;;2131667;27;20061;-45
2022/07/13 01:33:26;;;;;;;;;;;;;;;;;;2131748;27;20014;-44
2022/07/13 01:34:27;;;;;;;;;;;;;;;;;;2131784;27;19993;-44
2022/07/13 01:35:28;;;;;;;;;;;;;;;;;;2131704;27;19923;-44
2022/07/13 01:36:29;;;;;;;;;;;;;;;;;;2131753;27;20294;-45
2022/07/13 01:37:30;;;;;;;;;;;;;;;;;;2131716;27;20017;-44
2022/07/13 01:38:31;;;;;;;;;;;;;;;;;;2138157;27;19975;-44
2022/07/13 01:39:32;;;;;;;;;;;;;;;;;;2140464;27;19923;-44
2022/07/13 01:40:33;;;;;;;;;;;;;;;;;;2140582;27;19966;-45
2022/07/13 01:41:34;;;;;;;;;;;;;;;;;;2140148;27;20457;-44
2022/07/13 01:42:34;;;;;;;;;;;;;;;;;;2140453;27;19923;-45
2022/07/13 01:43:35;;;;;;;;;;;;;;;;;;2140537;27;19929;-44
2022/07/13 01:44:36;;;;;;;;;;;;;;;;;;2140106;27;19955;-45
2022/07/13 01:45:37;;;;;;;;;;;;;;;;;;2140355;27;19990;-45
2022/07/13 01:46:38;;;;;;;;;;;;;;;;;;2140176;27;19923;-46
2022/07/13 01:47:39;;;;;;;;;;;;;;;;;;2140157;27;20379;-45
2022/07/13 01:48:40;;;;;;;;;;;;;;;;;;2140243;27;19999;-46
2022/07/13 01:49:41;;;;;;;;;;;;;;;;;;2140583;27;20021;-46
2022/07/13 01:50:41;;;;;;;;;;;;;;;;;;2140555;27;19999;-45
2022/07/13 01:51:42;;;;;;;;;;;;;;;;;;2140399;27;19922;-46
2022/07/13 01:52:43;;;;;;;;;;;;;;;;;;2140320;27;19926;-45
2022/07/13 01:53:44;;;;;;;;;;;;;;;;;;2140272;27;19923;-44
2022/07/13 01:54:45;;;;;;;;;;;;;;;;;;2140631;27;20466;-49
2022/07/13 01:55:46;;;;;;;;;;;;;;;;;;2140378;27;19958;-49
2022/07/13 01:56:47;;;;;;;;;;;;;;;;;;2140310;27;19923;-47
2022/07/13 01:57:48;;;;;;;;;;;;;;;;;;2140193;27;20371;-50
2022/07/13 01:58:48;;;;;;;;;;;;;;;;;;2140229;27;19923;-48
2022/07/13 01:59:49;;;;;;;;;;;;;;;;;;2140236;27;19923;-47
2022/07/13 02:00:50;;;;;;;;;;;;;;;;;;2140563;27;20306;-44
2022/07/13 02:01:51;;;;;;;;;;;;;;;;;;2140520;27;19923;-44
2022/07/13 02:02:52;;;;;;;;;;;;;;;;;;2140167;27;20025;-44
2022/07/13 02:03:54;;;;;;;;;;;;;;;;;;2140277;27;19934;-45
2022/07/13 02:04:54;;;;;;;;;;;;;;;;;;2140153;27;19929;-46
2022/07/13 02:05:56;;;;;;;;;;;;;;;;;;2139974;27;20006;-46
2022/07/13 02:06:57;;;;;;;;;;;;;;;;;;2140524;27;20062;-45
2022/07/13 02:07:58;;;;;;;;;;;;;;;;;;2140287;27;20035;-46
2022/07/13 02:08:59;;;;;;;;;;;;;;;;;;2140264;27;20307;-45
2022/07/13 02:10:00;;;;;;;;;;;;;;;;;;2140246;27;19923;-45
2022/07/13 02:11:00;;;;;;;;;;;;;;;;;;2139098;27;20001;-45
2022/07/13 02:12:02;;;;;;;;;;;;;;;;;;2131410;27;20022;-45
2022/07/13 02:13:02;;;;;;;;;;;;;;;;;;2131425;27;20022;-45
2022/07/13 02:14:03;;;;;;;;;;;;;;;;;;2131593;27;19927;-45
2022/07/13 02:15:04;;;;;;;;;;;;;;;;;;2131265;27;20026;-46
2022/07/13 02:16:05;;;;;;;;;;;;;;;;;;2131646;27;19974;-45
2022/07/13 02:17:06;;;;;;;;;;;;;;;;;;2131471;27;20383;-45
2022/07/13 02:18:07;;;;;;;;;;;;;;;;;;2131303;27;19923;-46
2022/07/13 02:19:09;;;;;;;;;;;;;;;;;;2131700;27;20055;-49
2022/07/13 02:20:10;;;;;;;;;;;;;;;;;;2131806;27;20139;-48
2022/07/13 02:21:11;;;;;;;;;;;;;;;;;;2131454;27;19923;-49
2022/07/13 02:22:12;;;;;;;;;;;;;;;;;;2131429;27;20496;-47
2022/07/13 02:23:12;;;;;;;;;;;;;;;;;;2131495;27;20017;-49
2022/07/13 02:24:14;;;;;;;;;;;;;;;;;;2131503;27;19927;-46
2022/07/13 02:25:15;;;;;;;;;;;;;;;;;;2131689;27;19958;-49
2022/07/13 02:26:16;;;;;;;;;;;;;;;;;;2131613;27;19923;-47
2022/07/13 02:27:17;;;;;;;;;;;;;;;;;;2131568;27;20047;-48
2022/07/13 02:28:18;;;;;;;;;;;;;;;;;;2131441;27;20447;-47
2022/07/13 02:29:19;;;;;;;;;;;;;;;;;;2131404;27;20018;-50
2022/07/13 02:30:20;;;;;;;;;;;;;;;;;;2131446;27;19923;-46
2022/07/13 02:31:24;;;;;;;;;;;;;;;;;;2131764;27;19923;-47
2022/07/13 02:32:25;;;;;;;;;;;;;;;;;;2131623;27;20407;-47
2022/07/13 02:33:26;;;;;;;;;;;;;;;;;;2131300;27;20412;-46
2022/07/13 02:34:27;;;;;;;;;;;;;;;;;;2135241;27;19927;-47
2022/07/13 02:35:28;;;;;;;;;;;;;;;;;;2140115;27;20025;-50
2022/07/13 02:36:29;;;;;;;;;;;;;;;;;;2139980;27;20025;-47
2022/07/13 02:37:30;;;;;;;;;;;;;;;;;;2140111;27;20349;-47
2022/07/13 02:38:31;;;;;;;;;;;;;;;;;;2140149;27;19929;-46
2022/07/13 02:39:32;;;;;;;;;;;;;;;;;;2139805;27;20060;-46
2022/07/13 02:40:33;;;;;;;;;;;;;;;;;;2139888;27;20387;-47
2022/07/13 02:41:34;;;;;;;;;;;;;;;;;;2140019;27;19923;-47
2022/07/13 02:42:35;;;;;;;;;;;;;;;;;;2140538;27;19922;-46
2022/07/13 02:43:36;;;;;;;;;;;;;;;;;;2139986;27;20317;-46
2022/07/13 02:44:37;;;;;;;;;;;;;;;;;;2139957;27;19923;-48
2022/07/13 02:45:38;;;;;;;;;;;;;;;;;;2139922;27;20058;-47
2022/07/13 02:46:39;;;;;;;;;;;;;;;;;;2140414;27;19971;-47
2022/07/13 02:47:40;;;;;;;;;;;;;;;;;;2139939;27;20021;-46
2022/07/13 02:48:41;;;;;;;;;;;;;;;;;;2139855;27;19923;-45
2022/07/13 02:49:42;;;;;;;;;;;;;;;;;;2140230;27;20370;-48
2022/07/13 02:50:43;;;;;;;;;;;;;;;;;;2140424;27;19927;-46
2022/07/13 02:51:43;;;;;;;;;;;;;;;;;;2139793;27;20161;-45
2022/07/13 02:52:45;;;;;;;;;;;;;;;;;;2140017;27;19945;-45
2022/07/13 02:53:45;;;;;;;;;;;;;;;;;;2140296;27;19923;-47
2022/07/13 02:54:46;;;;;;;;;;;;;;;;;;2141175;27;19923;-49
2022/07/13 02:55:47;;;;;;;;;;;;;;;;;;2139897;27;19923;-47
2022/07/13 02:56:48;;;;;;;;;;;;;;;;;;2141486;27;19922;-45
2022/07/13 02:57:49;;;;;;;;;;;;;;;;;;2141693;27;20025;-45
2022/07/13 02:58:50;;;;;;;;;;;;;;;;;;2141800;27;19930;-47
2022/07/13 02:59:52;;;;;;;;;;;;;;;;;;2140866;27;20517;-47
2022/07/13 03:00:52;;;;;;;;;;;;;;;;;;2141610;27;20009;-47
2022/07/13 03:01:53;;;;;;;;;;;;;;;;;;2141314;27;19966;-47
2022/07/13 03:02:54;;;;;;;;;;;;;;;;;;2141691;27;20352;-47
2022/07/13 03:03:57;;;;;;;;;;;;;;;;;;2141662;27;19930;-47
2022/07/13 03:04:57;;;;;;;;;;;;;;;;;;2141671;27;19933;-46
2022/07/13 03:06:01;;;;;;;;;;;;;;;;;;2141313;27;20307;-46
2022/07/13 03:07:02;;;;;;;;;;;;;;;;;;2141095;27;20010;-47
2022/07/13 03:08:03;;;;;;;;;;;;;;;;;;2141337;27;20025;-47
2022/07/13 03:09:04;;;;;;;;;;;;;;;;;;2141826;27;20453;-46
2022/07/13 03:10:05;;;;;;;;;;;;;;;;;;2141676;27;20387;-48
2022/07/13 03:11:06;;;;;;;;;;;;;;;;;;2141345;27;20366;-49
2022/07/13 03:12:07;;;;;;;;;;;;;;;;;;2141301;27;19923;-47
2022/07/13 03:13:08;;;;;;;;;;;;;;;;;;2141597;27;19923;-48
2022/07/13 03:14:09;;;;;;;;;;;;;;;;;;2141509;27;20472;-47
2022/07/13 03:15:10;;;;;;;;;;;;;;;;;;2141470;27;20014;-47
2022/07/13 03:16:11;;;;;;;;;;;;;;;;;;2141484;27;19971;-46
2022/07/13 03:17:12;;;;;;;;;;;;;;;;;;2142048;27;19929;-48
2022/07/13 03:18:13;;;;;;;;;;;;;;;;;;2141308;27;19926;-48
2022/07/13 03:19:14;;;;;;;;;;;;;;;;;;2141468;27;20287;-45
2022/07/13 03:20:15;;;;;;;;;;;;;;;;;;2141601;27;19923;-47
2022/07/13 03:21:16;;;;;;;;;;;;;;;;;;2141526;27;20415;-47
2022/07/13 03:22:17;;;;;;;;;;;;;;;;;;2141331;27;19929;-46
2022/07/13 03:23:18;;;;;;;;;;;;;;;;;;2141266;27;19930;-46
2022/07/13 03:24:19;;;;;;;;;;;;;;;;;;2141151;27;20390;-47
2022/07/13 03:25:20;;;;;;;;;;;;;;;;;;2141550;27;19923;-48
2022/07/13 03:26:22;;;;;;;;;;;;;;;;;;2141125;27;19922;-46
2022/07/13 03:27:23;;;;;;;;;;;;;;;;;;2141056;27;20006;-50
2022/07/13 03:28:23;;;;;;;;;;;;;;;;;;2141531;27;20010;-45
2022/07/13 03:29:24;;;;;;;;;;;;;;;;;;2141623;27;19930;-46
2022/07/13 03:30:25;;;;;;;;;;;;;;;;;;2141301;27;20282;-47
2022/07/13 03:31:26;;;;;;;;;;;;;;;;;;2141051;27;19923;-47
2022/07/13 03:32:27;;;;;;;;;;;;;;;;;;2141268;27;20009;-46
2022/07/13 03:33:28;;;;;;;;;;;;;;;;;;2141370;27;20408;-48
2022/07/13 03:34:29;;;;;;;;;;;;;;;;;;2141095;27;20325;-48
2022/07/13 03:35:30;;;;;;;;;;;;;;;;;;2141250;27;19922;-47
2022/07/13 03:36:31;;;;;;;;;;;;;;;;;;2141289;27;19923;-47
2022/07/13 03:37:32;;;;;;;;;;;;;;;;;;2141382;27;20021;-47
2022/07/13 03:38:33;;;;;;;;;;;;;;;;;;2141693;27;20445;-46
2022/07/13 03:39:34;;;;;;;;;;;;;;;;;;2141087;27;20018;-49
2022/07/13 03:40:35;;;;;;;;;;;;;;;;;;2141174;27;19931;-47
2022/07/13 03:41:35;;;;;;;;;;;;;;;;;;2141380;27;20398;-46
2022/07/13 03:42:36;;;;;;;;;;;;;;;;;;2141243;27;19926;-46
2022/07/13 03:43:37;;;;;;;;;;;;;;;;;;2140979;27;20013;-44
2022/07/13 03:44:38;;;;;;;;;;;;;;;;;;2141192;27;19927;-45
2022/07/13 03:45:39;;;;;;;;;;;;;;;;;;2141334;27;20025;-46
2022/07/13 03:46:40;;;;;;;;;;;;;;;;;;2141228;27;19923;-45
2022/07/13 03:47:41;;;;;;;;;;;;;;;;;;2141238;27;20375;-45
2022/07/13 03:48:42;;;;;;;;;;;;;;;;;;2141080;27;20034;-45
2022/07/13 03:49:43;;;;;;;;;;;;;;;;;;2141337;27;20367;-46
2022/07/13 03:50:44;;;;;;;;;;;;;;;;;;2141196;27;19931;-46
2022/07/13 03:51:46;;;;;;;;;;;;;;;;;;2141173;27;20434;-47
2022/07/13 03:52:47;;;;;;;;;;;;;;;;;;2141113;27;20021;-48
2022/07/13 03:53:49;;;;;;;;;;;;;;;;;;2141109;27;19926;-48
2022/07/13 03:54:50;;;;;;;;;;;;;;;;;;2141242;27;19929;-46
2022/07/13 03:55:51;;;;;;;;;;;;;;;;;;2141513;27;19969;-49
2022/07/13 03:56:52;;;;;;;;;;;;;;;;;;2140930;27;20299;-48
2022/07/13 03:57:53;;;;;;;;;;;;;;;;;;2141448;27;19927;-46
2022/07/13 03:58:55;;;;;;;;;;;;;;;;;;2141222;27;20025;-46
2022/07/13 03:59:55;;;;;;;;;;;;;;;;;;2141495;27;19955;-46
2022/07/13 04:00:57;;;;;;;;;;;;;;;;;;2141398;27;19923;-46
2022/07/13 04:01:57;;;;;;;;;;;;;;;;;;2141978;27;19969;-46
2022/07/13 04:02:58;;;;;;;;;;;;;;;;;;2141130;27;19933;-46
2022/07/13 04:04:00;;;;;;;;;;;;;;;;;;2141199;27;20344;-49
2022/07/13 04:05:01;;;;;;;;;;;;;;;;;;2140889;27;19930;-46
2022/07/13 04:06:02;;;;;;;;;;;;;;;;;;2140666;27;19930;-47
2022/07/13 04:07:03;;;;;;;;;;;;;;;;;;2141434;27;19926;-47
2022/07/13 04:08:04;;;;;;;;;;;;;;;;;;2140925;27;19964;-47
2022/07/13 04:09:05;;;;;;;;;;;;;;;;;;2141066;27;20343;-47
2022/07/13 04:10:05;;;;;;;;;;;;;;;;;;2141173;27;20260;-46
2022/07/13 04:11:06;;;;;;;;;;;;;;;;;;2138904;27;19933;-47
2022/07/13 04:12:07;;;;;;;;;;;;;;;;;;2132366;27;19923;-46
2022/07/13 04:13:08;;;;;;;;;;;;;;;;;;2132872;27;19923;-45
2022/07/13 04:14:12;;;;;;;;;;;;;;;;;;2132835;27;19975;-47
2022/07/13 04:15:13;;;;;;;;;;;;;;;;;;2132542;27;20354;-45
2022/07/13 04:16:14;;;;;;;;;;;;;;;;;;2132536;27;20006;-48
2022/07/13 04:17:15;;;;;;;;;;;;;;;;;;2132600;27;20475;-47
2022/07/13 04:18:16;;;;;;;;;;;;;;;;;;2132310;27;20090;-47
2022/07/13 04:19:17;;;;;;;;;;;;;;;;;;2132417;27;19923;-46
2022/07/13 04:20:18;;;;;;;;;;;;;;;;;;2132146;27;19930;-46
2022/07/13 04:21:19;;;;;;;;;;;;;;;;;;2132075;27;20372;-48
2022/07/13 04:22:19;;;;;;;;;;;;;;;;;;2132260;27;19923;-47
2022/07/13 04:23:20;;;;;;;;;;;;;;;;;;2132316;27;19927;-46
2022/07/13 04:24:22;;;;;;;;;;;;;;;;;;2132510;27;19923;-45
2022/07/13 04:25:23;;;;;;;;;;;;;;;;;;2132322;27;19923;-44
2022/07/13 04:26:23;;;;;;;;;;;;;;;;;;2132226;27;19923;-47
2022/07/13 04:27:24;;;;;;;;;;;;;;;;;;2139847;27;20324;-47
2022/07/13 04:28:25;;;;;;;;;;;;;;;;;;2141001;27;20013;-47
2022/07/13 04:29:26;;;;;;;;;;;;;;;;;;2141018;27;19942;-46
2022/07/13 04:30:27;;;;;;;;;;;;;;;;;;2141203;27;19923;-47
2022/07/13 04:31:28;;;;;;;;;;;;;;;;;;2141100;27;20404;-45
2022/07/13 04:32:29;;;;;;;;;;;;;;;;;;2140815;27;19930;-45
2022/07/13 04:33:30;;;;;;;;;;;;;;;;;;2141475;27;19930;-45
2022/07/13 04:34:31;;;;;;;;;;;;;;;;;;2141041;27;19923;-50
2022/07/13 04:35:32;;;;;;;;;;;;;;;;;;2140928;27;19926;-46
2022/07/13 04:36:33;;;;;;;;;;;;;;;;;;2140898;27;20482;-45
2022/07/13 04:37:34;;;;;;;;;;;;;;;;;;2140736;27;19927;-46
2022/07/13 04:38:35;;;;;;;;;;;;;;;;;;2140923;27;20021;-45
2022/07/13 04:39:35;;;;;;;;;;;;;;;;;;2140740;27;20013;-45
2022/07/13 04:40:37;;;;;;;;;;;;;;;;;;2140886;27;19990;-45
2022/07/13 04:41:37;;;;;;;;;;;;;;;;;;2140631;27;19929;-44
2022/07/13 04:42:38;;;;;;;;;;;;;;;;;;2140984;27;20298;-45
2022/07/13 04:43:39;;;;;;;;;;;;;;;;;;2140997;27;20504;-46
2022/07/13 04:44:40;;;;;;;;;;;;;;;;;;2141242;27;19923;-47
2022/07/13 04:45:41;;;;;;;;;;;;;;;;;;2140823;27;19922;-45
2022/07/13 04:46:42;;;;;;;;;;;;;;;;;;2141252;27;19947;-45
2022/07/13 04:47:43;;;;;;;;;;;;;;;;;;2140561;27;19923;-45
2022/07/13 04:48:44;;;;;;;;;;;;;;;;;;2140629;27;19966;-45
2022/07/13 04:49:45;;;;;;;;;;;;;;;;;;2140809;27;19965;-45
2022/07/13 04:50:46;;;;;;;;;;;;;;;;;;2140386;27;19929;-45
2022/07/13 04:51:47;;;;;;;;;;;;;;;;;;2140655;27;20017;-46
2022/07/13 04:52:48;;;;;;;;;;;;;;;;;;2140900;27;20386;-46
2022/07/13 04:53:49;;;;;;;;;;;;;;;;;;2140517;27;20360;-45
2022/07/13 04:54:50;;;;;;;;;;;;;;;;;;2140767;27;20017;-45
2022/07/13 04:55:55;;;;;;;;;;;;;;;;;;2141003;27;20020;-47
2022/07/13 04:56:57;;;;;;;;;;;;;;;;;;2140468;27;20380;-49
2022/07/13 04:57:58;;;;;;;;;;;;;;;;;;2140578;27;20402;-48
2022/07/13 04:58:59;;;;;;;;;;;;;;;;;;2140569;27;19926;-46
2022/07/13 05:00:00;;;;;;;;;;;;;;;;;;2140584;27;19941;-47
2022/07/13 05:01:01;;;;;;;;;;;;;;;;;;2140978;27;19922;-47
2022/07/13 05:02:22;;;;;;;;;;;;;;;;;;2140996;27;20009;-48
2022/07/13 05:03:23;;;;;;;;;;;;;;;;;;2140597;27;20272;-51
2022/07/13 05:04:24;;;;;;;;;;;;;;;;;;2140910;27;19927;-50
2022/07/13 05:05:25;;;;;;;;;;;;;;;;;;2140599;27;19931;-48
2022/07/13 05:06:26;;;;;;;;;;;;;;;;;;2140725;27;19937;-45
2022/07/13 05:07:28;;;;;;;;;;;;;;;;;;2140940;27;19911;-47
2022/07/13 05:08:29;;;;;;;;;;;;;;;;;;2140825;27;20329;-45
2022/07/13 05:09:31;;;;;;;;;;;;;;;;;;2140679;27;19926;-46
2022/07/13 05:10:31;;;;;;;;;;;;;;;;;;2140606;27;20477;-45
2022/07/13 05:11:32;;;;;;;;;;;;;;;;;;2134893;27;19980;-45
2022/07/13 05:12:34;;;;;;;;;;;;;;;;;;2132071;27;19940;-45
2022/07/13 05:13:35;;;;;;;;;;;;;;;;;;2132704;27;20338;-47
2022/07/13 05:14:36;;;;;;;;;;;;;;;;;;2135666;27;19927;-47
2022/07/13 05:15:37;;;;;;;;;;;;;;;;;;2140395;27;19923;-46
2022/07/13 05:16:38;;;;;;;;;;;;;;;;;;2140914;27;19927;-46
2022/07/13 05:17:39;;;;;;;;;;;;;;;;;;2140566;27;20006;-46
2022/07/13 05:18:40;;;;;;;;;;;;;;;;;;2140323;27;19987;-45
2022/07/13 05:19:41;;;;;;;;;;;;;;;;;;2140229;27;20413;-46
2022/07/13 05:20:42;;;;;;;;;;;;;;;;;;2140431;27;20376;-46
2022/07/13 05:21:43;;;;;;;;;;;;;;;;;;2140619;27;19954;-45
2022/07/13 05:22:43;;;;;;;;;;;;;;;;;;2140831;27;20382;-47
2022/07/13 05:23:45;;;;;;;;;;;;;;;;;;2139405;27;19922;-45
2022/07/13 05:24:45;;;;;;;;;;;;;;;;;;2132461;27;19977;-46
2022/07/13 05:25:46;;;;;;;;;;;;;;;;;;2131780;27;19923;-46
2022/07/13 05:26:47;;;;;;;;;;;;;;;;;;2131674;27;20047;-46
2022/07/13 05:27:48;;;;;;;;;;;;;;;;;;2132097;27;20027;-44
2022/07/13 05:28:49;;;;;;;;;;;;;;;;;;2131809;27;20026;-44
2022/07/13 05:29:50;;;;;;;;;;;;;;;;;;2131925;27;19942;-45
2022/07/13 05:30:51;;;;;;;;;;;;;;;;;;2131877;27;20419;-47
2022/07/13 05:31:53;;;;;;;;;;;;;;;;;;2131790;27;19969;-46
2022/07/13 05:32:54;;;;;;;;;;;;;;;;;;2131783;27;19948;-45
2022/07/13 05:33:55;;;;;;;;;;;;;;;;;;2131693;27;19923;-45
2022/07/13 05:34:56;;;;;;;;;;;;;;;;;;2132131;27;19923;-46
2022/07/13 05:35:57;;;;;;;;;;;;;;;;;;2131528;27;19923;-46
2022/07/13 05:36:58;;;;;;;;;;;;;;;;;;2131813;27;19927;-46
2022/07/13 05:37:59;;;;;;;;;;;;;;;;;;2131986;27;20015;-46
2022/07/13 05:39:00;;;;;;;;;;;;;;;;;;2131764;27;20337;-46
2022/07/13 05:40:01;;;;;;;;;;;;;;;;;;2131950;27;19923;-44
2022/07/13 05:41:01;;;;;;;;;;;;;;;;;;2131829;27;19923;-47
2022/07/13 05:42:02;;;;;;;;;;;;;;;;;;2131949;27;19937;-46
2022/07/13 05:43:03;;;;;;;;;;;;;;;;;;2131730;27;20053;-46
2022/07/13 05:44:04;;;;;;;;;;;;;;;;;;2131927;27;20337;-46
2022/07/13 05:45:05;;;;;;;;;;;;;;;;;;2131502;27;20163;-47
2022/07/13 05:46:06;;;;;;;;;;;;;;;;;;2131505;27;19984;-48
2022/07/13 05:47:07;;;;;;;;;;;;;;;;;;2131652;27;20017;-45
2022/07/13 05:48:08;;;;;;;;;;;;;;;;;;2136985;27;19923;-44
2022/07/13 05:49:13;;;;;;;;;;;;;;;;;;2140129;27;19964;-45
2022/07/13 05:50:14;;;;;;;;;;;;;;;;;;2140863;27;19941;-45
2022/07/13 05:51:15;;;;;;;;;;;;;;;;;;2140219;27;19976;-45
2022/07/13 05:52:34;;;;;;;;;;;;;;;;;;2140931;27;19934;-45
2022/07/13 05:53:35;;;;;;;;;;;;;;;;;;2140495;27;20013;-44
2022/07/13 05:54:36;;;;;;;;;;;;;;;;;;2140221;27;20319;-45
2022/07/13 05:55:45;;;;;;;;;;;;;;;;;;2140675;27;19968;-45
2022/07/13 05:56:47;;;;;;;;;;;;;;;;;;2140298;27;20042;-45
2022/07/13 05:57:47;;;;;;;;;;;;;;;;;;2140022;27;20379;-45
2022/07/13 05:58:49;;;;;;;;;;;;;;;;;;2140244;27;19923;-45
2022/07/13 05:59:50;;;;;;;;;;;;;;;;;;2140510;27;19923;-45
2022/07/13 06:00:50;;;;;;;;;;;;;;;;;;2140740;27;19922;-46
2022/07/13 06:01:58;;;;;;;;;;;;;;;;;;2140520;27;19926;-44
2022/07/13 06:02:59;;;;;;;;;;;;;;;;;;2140266;27;19937;-44
2022/07/13 06:04:00;;;;;;;;;;;;;;;;;;2140282;27;20351;-45
2022/07/13 06:05:01;;;;;;;;;;;;;;;;;;2140297;27;19923;-46
2022/07/13 06:06:02;;;;;;;;;;;;;;;;;;2140050;27;20337;-45
2022/07/13 06:07:03;;;;;;;;;;;;;;;;;;2140215;27;20395;-47
2022/07/13 06:08:04;;;;;;;;;;;;;;;;;;2140076;27;19930;-46
2022/07/13 06:09:05;;;;;;;;;;;;;;;;;;2140430;27;19996;-45
2022/07/13 06:10:06;;;;;;;;;;;;;;;;;;2140412;27;20291;-44
2022/07/13 06:11:07;;;;;;;;;;;;;;;;;;2140270;27;19927;-49
2022/07/13 06:12:08;;;;;;;;;;;;;;;;;;2140007;27;19930;-45
2022/07/13 06:13:09;;;;;;;;;;;;;;;;;;2140538;27;20010;-44
2022/07/13 06:14:10;;;;;;;;;;;;;;;;;;2140584;27;19927;-47
2022/07/13 06:15:11;;;;;;;;;;;;;;;;;;2140057;27;19934;-49
2022/07/13 06:16:11;;;;;;;;;;;;;;;;;;2140490;27;19926;-47
2022/07/13 06:17:12;;;;;;;;;;;;;;;;;;2140472;27;19986;-47
2022/07/13 06:18:13;;;;;;;;;;;;;;;;;;2140306;27;20367;-45
2022/07/13 06:19:14;;;;;;;;;;;;;;;;;;2140123;27;19927;-45
2022/07/13 06:20:15;;;;;;;;;;;;;;;;;;2140068;27;20271;-44
2022/07/13 06:21:16;;;;;;;;;;;;;;;;;;2140542;27;20058;-48
2022/07/13 06:22:17;;;;;;;;;;;;;;;;;;2140561;27;19983;-44
2022/07/13 06:23:20;;;;;;;;;;;;;;;;;;2140690;27;19955;-49
2022/07/13 06:24:21;;;;;;;;;;;;;;;;;;2140803;27;19958;-46
2022/07/13 06:25:22;;;;;;;;;;;;;;;;;;2139900;27;20439;-46
2022/07/13 06:26:23;;;;;;;;;;;;;;;;;;2140224;27;19923;-45
2022/07/13 06:27:24;;;;;;;;;;;;;;;;;;2139989;27;20059;-44
2022/07/13 06:28:25;;;;;;;;;;;;;;;;;;2139979;27;19922;-45
2022/07/13 06:29:27;;;;;;;;;;;;;;;;;;2140398;27;20043;-44
2022/07/13 06:30:28;;;;;;;;;;;;;;;;;;2140092;27;19926;-47
2022/07/13 06:31:28;;;;;;;;;;;;;;;;;;2141642;27;20329;-44
2022/07/13 06:32:30;;;;;;;;;;;;;;;;;;2141591;27;19930;-46
2022/07/13 06:33:30;;;;;;;;;;;;;;;;;;2141730;27;20248;-44
2022/07/13 06:34:31;;;;;;;;;;;;;;;;;;2142187;27;19923;-45
2022/07/13 06:35:32;;;;;;;;;;;;;;;;;;2141887;27;19976;-45
2022/07/13 06:36:34;;;;;;;;;;;;;;;;;;2141479;27;19927;-46
2022/07/13 06:37:35;;;;;;;;;;;;;;;;;;2142070;27;19966;-47
2022/07/13 06:38:46;;;;;;;;;;;;;;;;;;2141780;27;19970;-45
2022/07/13 06:39:47;;;;;;;;;;;;;;;;;;2141662;27;20029;-44
2022/07/13 06:40:49;;;;;;;;;;;;;;;;;;2141706;27;19937;-45
2022/07/13 06:41:50;;;;;;;;;;;;;;;;;;2141663;27;20021;-44
2022/07/13 06:42:51;;;;;;;;;;;;;;;;;;2141635;27;20009;-46
2022/07/13 06:43:52;;;;;;;;;;;;;;;;;;2142089;27;19954;-44
2022/07/13 06:44:55;;;;;;;;;;;;;;;;;;2141703;27;20398;-45
2022/07/13 06:45:56;;;;;;;;;;;;;;;;;;2141373;27;20025;-47
2022/07/13 06:46:59;;;;;;;;;;;;;;;;;;2141692;27;20426;-45
2022/07/13 06:48:00;;;;;;;;;;;;;;;;;;2141412;27;19974;-47
2022/07/13 06:49:01;;;;;;;;;;;;;;;;;;2141759;27;19927;-48
2022/07/13 06:50:02;;;;;;;;;;;;;;;;;;2141963;27;19922;-47
2022/07/13 06:51:03;;;;;;;;;;;;;;;;;;2141646;27;20010;-45
2022/07/13 06:52:04;;;;;;;;;;;;;;;;;;2141561;27;19926;-44
2022/07/13 06:53:05;;;;;;;;;;;;;;;;;;2141796;27;19926;-47
2022/07/13 06:54:06;;;;;;;;;;;;;;;;;;2141471;27;19922;-45
2022/07/13 06:55:07;;;;;;;;;;;;;;;;;;2141900;27;19926;-46
2022/07/13 06:56:08;;;;;;;;;;;;;;;;;;2142234;27;20373;-47
2022/07/13 06:57:09;;;;;;;;;;;;;;;;;;2141600;27;19923;-47
2022/07/13 06:58:10;;;;;;;;;;;;;;;;;;2142089;27;19958;-47